KAUS/AUS METAR and TAF weather

Enter ICAO airport designator
Station Type Date Time Source
KAUS METAR 2021/03/03 20:53 UTC NOAA

KAUS 032053Z 20006KT 10SM FEW200 FEW300 22/04 A3009 RMK AO2 SLP190 T02170044 56030


Station Type Date Time Source
KAUS Decoded METAR 2021/03/03 20:53 UTC NOAA

AUSTIN-BERGSTROM INTERNATIONAL AIRPORT, TX, United States (KAUS) 30-11N 097-41W 172M
Mar 03, 2021 - 03:53 PM EST / 2021.03.03 2053 UTC
Wind: from the SSW (200 degrees) at 7 MPH (6 KT):0
Visibility: 10 mile(s):0
Sky conditions: mostly clear
Temperature: 71.1 F (21.7 C)
Dew Point: 39.9 F (4.4 C)
Relative Humidity: 32%
Pressure (altimeter): 30.09 in. Hg (1018 hPa)
Pressure tendency: 0.09 inches (3.0 hPa) lower than three hours ago
ob: KAUS 032053Z 20006KT 10SM FEW200 FEW300 22/04 A3009 RMK AO2 SLP190 T02170044 56030
cycle: 21

Station Type Date Time Source
KAUS TAF 2021/03/03 18:45 UTC NOAA

TAF KAUS 031742Z 0318/0424 16009KT P6SM FEW150 FEW300
FM040600 19004KT P6SM SKC
TEMPO 0412/0414 5SM BR SCT007
FM041700 17011KT P6SM SCT150

Example: see airport list